sensor_id;sensor_type;location;lat;lon;timestamp;temperature;humidity
74087;SHT30;62445;48.406;-4.518;2023-05-10T00:00:25;22.35;55.48
74087;SHT30;62445;48.406;-4.518;2023-05-10T00:02:50;22.29;55.46
74087;SHT30;62445;48.406;-4.518;2023-05-10T00:05:16;22.32;55.40
74087;SHT30;62445;48.406;-4.518;2023-05-10T00:07:41;22.32;55.41
74087;SHT30;62445;48.406;-4.518;2023-05-10T00:10:10;22.30;55.50
74087;SHT30;62445;48.406;-4.518;2023-05-10T00:12:36;22.29;55.33
74087;SHT30;62445;48.406;-4.518;2023-05-10T00:15:01;22.30;55.42
74087;SHT30;62445;48.406;-4.518;2023-05-10T00:17:28;22.27;55.40
74087;SHT30;62445;48.406;-4.518;2023-05-10T00:19:53;22.26;55.46
74087;SHT30;62445;48.406;-4.518;2023-05-10T00:22:19;22.29;55.45
74087;SHT30;62445;48.406;-4.518;2023-05-10T00:24:45;22.27;55.38
74087;SHT30;62445;48.406;-4.518;2023-05-10T00:27:10;22.29;55.37
74087;SHT30;62445;48.406;-4.518;2023-05-10T00:29:36;22.24;55.40
74087;SHT30;62445;48.406;-4.518;2023-05-10T00:32:01;22.26;55.34
74087;SHT30;62445;48.406;-4.518;2023-05-10T00:34:26;22.27;55.35
74087;SHT30;62445;48.406;-4.518;2023-05-10T00:36:52;22.24;55.46
74087;SHT30;62445;48.406;-4.518;2023-05-10T00:39:17;22.27;55.39
74087;SHT30;62445;48.406;-4.518;2023-05-10T00:41:43;22.27;55.43
74087;SHT30;62445;48.406;-4.518;2023-05-10T00:44:08;22.24;55.43
74087;SHT30;62445;48.406;-4.518;2023-05-10T00:46:34;22.26;55.36
74087;SHT30;62445;48.406;-4.518;2023-05-10T00:49:00;22.26;55.28
74087;SHT30;62445;48.406;-4.518;2023-05-10T00:51:25;22.24;55.34
74087;SHT30;62445;48.406;-4.518;2023-05-10T00:53:51;22.23;55.36
74087;SHT30;62445;48.406;-4.518;2023-05-10T00:56:17;22.23;55.37
74087;SHT30;62445;48.406;-4.518;2023-05-10T00:58:42;22.20;55.34
74087;SHT30;62445;48.406;-4.518;2023-05-10T01:01:09;22.21;55.43
74087;SHT30;62445;48.406;-4.518;2023-05-10T01:03:36;22.21;55.39
74087;SHT30;62445;48.406;-4.518;2023-05-10T01:06:01;22.20;55.45
74087;SHT30;62445;48.406;-4.518;2023-05-10T01:08:27;22.24;55.36
74087;SHT30;62445;48.406;-4.518;2023-05-10T01:10:53;22.21;55.35
74087;SHT30;62445;48.406;-4.518;2023-05-10T01:13:39;22.21;55.32
74087;SHT30;62445;48.406;-4.518;2023-05-10T01:16:06;22.23;55.38
74087;SHT30;62445;48.406;-4.518;2023-05-10T01:18:38;22.21;55.38
74087;SHT30;62445;48.406;-4.518;2023-05-10T01:21:19;22.21;55.33
74087;SHT30;62445;48.406;-4.518;2023-05-10T01:35:07;22.19;55.39
74087;SHT30;62445;48.406;-4.518;2023-05-10T01:37:41;22.17;55.39
74087;SHT30;62445;48.406;-4.518;2023-05-10T01:40:19;22.16;55.44
74087;SHT30;62445;48.406;-4.518;2023-05-10T01:42:51;22.19;55.37
74087;SHT30;62445;48.406;-4.518;2023-05-10T01:45:24;22.14;55.40
74087;SHT30;62445;48.406;-4.518;2023-05-10T01:48:05;22.16;55.32
74087;SHT30;62445;48.406;-4.518;2023-05-10T01:50:31;22.17;55.25
74087;SHT30;62445;48.406;-4.518;2023-05-10T01:52:59;22.14;55.33
74087;SHT30;62445;48.406;-4.518;2023-05-10T01:55:28;22.16;55.36
74087;SHT30;62445;48.406;-4.518;2023-05-10T01:58:32;22.16;55.26
74087;SHT30;62445;48.406;-4.518;2023-05-10T02:01:01;22.16;55.31
74087;SHT30;62445;48.406;-4.518;2023-05-10T02:03:29;22.16;55.37
74087;SHT30;62445;48.406;-4.518;2023-05-10T02:05:57;22.13;55.25
74087;SHT30;62445;48.406;-4.518;2023-05-10T02:08:23;22.13;55.26
74087;SHT30;62445;48.406;-4.518;2023-05-10T02:10:51;22.17;55.28
74087;SHT30;62445;48.406;-4.518;2023-05-10T02:13:18;22.16;55.29
74087;SHT30;62445;48.406;-4.518;2023-05-10T02:15:47;22.14;55.25
74087;SHT30;62445;48.406;-4.518;2023-05-10T02:18:13;22.13;55.30
74087;SHT30;62445;48.406;-4.518;2023-05-10T02:20:42;22.13;55.17
74087;SHT30;62445;48.406;-4.518;2023-05-10T02:23:09;22.13;55.30
74087;SHT30;62445;48.406;-4.518;2023-05-10T02:25:35;22.13;55.32
74087;SHT30;62445;48.406;-4.518;2023-05-10T02:28:04;22.12;55.30
74087;SHT30;62445;48.406;-4.518;2023-05-10T02:30:32;22.12;55.43
74087;SHT30;62445;48.406;-4.518;2023-05-10T02:32:59;22.12;55.36
74087;SHT30;62445;48.406;-4.518;2023-05-10T02:35:25;22.12;55.31
74087;SHT30;62445;48.406;-4.518;2023-05-10T02:37:52;22.14;55.34
74087;SHT30;62445;48.406;-4.518;2023-05-10T02:40:19;22.12;55.31
74087;SHT30;62445;48.406;-4.518;2023-05-10T02:42:47;22.10;55.31
74087;SHT30;62445;48.406;-4.518;2023-05-10T02:45:29;22.12;55.28
74087;SHT30;62445;48.406;-4.518;2023-05-10T02:47:56;22.10;55.31
74087;SHT30;62445;48.406;-4.518;2023-05-10T02:50:22;22.12;55.36
74087;SHT30;62445;48.406;-4.518;2023-05-10T02:52:50;22.12;55.28
74087;SHT30;62445;48.406;-4.518;2023-05-10T02:55:20;22.10;55.22
74087;SHT30;62445;48.406;-4.518;2023-05-10T02:57:51;22.12;55.20
74087;SHT30;62445;48.406;-4.518;2023-05-10T03:00:17;22.10;55.14
74087;SHT30;62445;48.406;-4.518;2023-05-10T03:02:43;22.10;55.18
74087;SHT30;62445;48.406;-4.518;2023-05-10T03:05:08;22.09;55.16
74087;SHT30;62445;48.406;-4.518;2023-05-10T03:07:34;22.10;55.27
74087;SHT30;62445;48.406;-4.518;2023-05-10T03:10:00;22.08;55.30
74087;SHT30;62445;48.406;-4.518;2023-05-10T03:15:16;22.09;55.14
74087;SHT30;62445;48.406;-4.518;2023-05-10T03:17:47;22.09;55.15
74087;SHT30;62445;48.406;-4.518;2023-05-10T03:20:22;22.08;55.18
74087;SHT30;62445;48.406;-4.518;2023-05-10T03:22:53;22.09;55.22
74087;SHT30;62445;48.406;-4.518;2023-05-10T03:25:21;22.06;55.19
74087;SHT30;62445;48.406;-4.518;2023-05-10T03:27:48;22.08;55.14
74087;SHT30;62445;48.406;-4.518;2023-05-10T03:30:14;22.06;55.16
74087;SHT30;62445;48.406;-4.518;2023-05-10T03:32:40;22.08;55.16
74087;SHT30;62445;48.406;-4.518;2023-05-10T03:35:10;22.08;55.21
74087;SHT30;62445;48.406;-4.518;2023-05-10T03:37:36;22.03;55.16
74087;SHT30;62445;48.406;-4.518;2023-05-10T03:40:02;22.08;55.29
74087;SHT30;62445;48.406;-4.518;2023-05-10T03:42:28;22.06;55.19
74087;SHT30;62445;48.406;-4.518;2023-05-10T03:44:53;22.05;55.21
74087;SHT30;62445;48.406;-4.518;2023-05-10T03:47:19;22.03;55.14
74087;SHT30;62445;48.406;-4.518;2023-05-10T03:49:45;22.03;55.28
74087;SHT30;62445;48.406;-4.518;2023-05-10T03:52:10;22.06;55.22
74087;SHT30;62445;48.406;-4.518;2023-05-10T03:54:36;22.06;55.26
74087;SHT30;62445;48.406;-4.518;2023-05-10T03:57:01;22.03;55.34
74087;SHT30;62445;48.406;-4.518;2023-05-10T03:59:28;22.05;55.29
74087;SHT30;62445;48.406;-4.518;2023-05-10T04:01:53;22.05;55.23
74087;SHT30;62445;48.406;-4.518;2023-05-10T04:04:19;22.03;55.26
74087;SHT30;62445;48.406;-4.518;2023-05-10T04:06:46;22.03;55.20
74087;SHT30;62445;48.406;-4.518;2023-05-10T04:09:11;22.03;55.31
74087;SHT30;62445;48.406;-4.518;2023-05-10T04:11:36;22.05;55.19
74087;SHT30;62445;48.406;-4.518;2023-05-10T04:14:02;22.03;55.23
74087;SHT30;62445;48.406;-4.518;2023-05-10T04:16:27;22.03;55.33
74087;SHT30;62445;48.406;-4.518;2023-05-10T04:18:53;22.03;55.28
74087;SHT30;62445;48.406;-4.518;2023-05-10T04:21:18;22.02;55.20
74087;SHT30;62445;48.406;-4.518;2023-05-10T04:23:44;22.02;55.28
74087;SHT30;62445;48.406;-4.518;2023-05-10T04:26:09;22.02;55.27
74087;SHT30;62445;48.406;-4.518;2023-05-10T04:28:35;22.00;55.32
74087;SHT30;62445;48.406;-4.518;2023-05-10T04:31:04;22.02;55.28
74087;SHT30;62445;48.406;-4.518;2023-05-10T04:33:30;22.02;55.38
74087;SHT30;62445;48.406;-4.518;2023-05-10T04:35:56;22.02;55.29
74087;SHT30;62445;48.406;-4.518;2023-05-10T04:38:21;22.00;55.24
74087;SHT30;62445;48.406;-4.518;2023-05-10T04:40:47;22.00;55.31
74087;SHT30;62445;48.406;-4.518;2023-05-10T04:43:12;22.00;55.27
74087;SHT30;62445;48.406;-4.518;2023-05-10T04:45:38;22.00;55.31
74087;SHT30;62445;48.406;-4.518;2023-05-10T04:48:03;22.00;55.35
74087;SHT30;62445;48.406;-4.518;2023-05-10T04:50:29;21.98;55.37
74087;SHT30;62445;48.406;-4.518;2023-05-10T04:52:55;22.00;55.31
74087;SHT30;62445;48.406;-4.518;2023-05-10T04:55:20;21.99;55.32
74087;SHT30;62445;48.406;-4.518;2023-05-10T04:57:46;22.02;55.23
74087;SHT30;62445;48.406;-4.518;2023-05-10T05:00:12;21.99;55.26
74087;SHT30;62445;48.406;-4.518;2023-05-10T05:02:38;21.98;55.29
74087;SHT30;62445;48.406;-4.518;2023-05-10T05:05:04;21.96;55.32
74087;SHT30;62445;48.406;-4.518;2023-05-10T05:07:29;21.99;55.28
74087;SHT30;62445;48.406;-4.518;2023-05-10T05:09:56;21.98;55.18
74087;SHT30;62445;48.406;-4.518;2023-05-10T05:12:21;21.96;55.20
74087;SHT30;62445;48.406;-4.518;2023-05-10T05:14:46;21.98;55.21
74087;SHT30;62445;48.406;-4.518;2023-05-10T05:17:12;21.98;55.27
74087;SHT30;62445;48.406;-4.518;2023-05-10T05:19:37;21.96;55.21
74087;SHT30;62445;48.406;-4.518;2023-05-10T05:22:03;21.98;55.30
74087;SHT30;62445;48.406;-4.518;2023-05-10T05:24:28;21.98;55.31
74087;SHT30;62445;48.406;-4.518;2023-05-10T05:26:53;21.96;55.31
74087;SHT30;62445;48.406;-4.518;2023-05-10T05:29:19;21.99;55.31
74087;SHT30;62445;48.406;-4.518;2023-05-10T05:31:44;21.96;55.36
74087;SHT30;62445;48.406;-4.518;2023-05-10T05:34:10;21.96;55.28
74087;SHT30;62445;48.406;-4.518;2023-05-10T05:36:36;21.95;55.30
74087;SHT30;62445;48.406;-4.518;2023-05-10T05:39:03;21.95;55.28
74087;SHT30;62445;48.406;-4.518;2023-05-10T05:41:29;21.95;55.27
74087;SHT30;62445;48.406;-4.518;2023-05-10T05:43:54;21.95;55.29
74087;SHT30;62445;48.406;-4.518;2023-05-10T05:46:19;21.95;55.27
74087;SHT30;62445;48.406;-4.518;2023-05-10T05:48:45;21.93;55.27
74087;SHT30;62445;48.406;-4.518;2023-05-10T05:51:10;21.96;55.26
74087;SHT30;62445;48.406;-4.518;2023-05-10T05:53:36;21.92;55.28
74087;SHT30;62445;48.406;-4.518;2023-05-10T05:56:02;21.93;55.35
74087;SHT30;62445;48.406;-4.518;2023-05-10T05:58:27;21.95;55.30
74087;SHT30;62445;48.406;-4.518;2023-05-10T06:00:53;21.95;55.28
74087;SHT30;62445;48.406;-4.518;2023-05-10T06:03:19;21.93;55.36
74087;SHT30;62445;48.406;-4.518;2023-05-10T06:05:44;21.95;55.28
74087;SHT30;62445;48.406;-4.518;2023-05-10T06:08:10;21.92;55.31
74087;SHT30;62445;48.406;-4.518;2023-05-10T06:10:36;21.95;55.28
74087;SHT30;62445;48.406;-4.518;2023-05-10T06:13:01;21.93;55.23
74087;SHT30;62445;48.406;-4.518;2023-05-10T06:15:27;21.95;55.30
74087;SHT30;62445;48.406;-4.518;2023-05-10T06:17:52;21.92;55.31
74087;SHT30;62445;48.406;-4.518;2023-05-10T06:20:18;21.95;55.25
74087;SHT30;62445;48.406;-4.518;2023-05-10T06:22:43;21.93;55.29
74087;SHT30;62445;48.406;-4.518;2023-05-10T06:25:09;21.93;55.33
74087;SHT30;62445;48.406;-4.518;2023-05-10T06:27:35;21.93;55.31
74087;SHT30;62445;48.406;-4.518;2023-05-10T06:30:00;21.92;55.37
74087;SHT30;62445;48.406;-4.518;2023-05-10T06:32:26;21.92;55.29
74087;SHT30;62445;48.406;-4.518;2023-05-10T06:34:51;21.90;55.24
74087;SHT30;62445;48.406;-4.518;2023-05-10T06:37:17;21.92;55.36
74087;SHT30;62445;48.406;-4.518;2023-05-10T06:39:42;21.92;55.35
74087;SHT30;62445;48.406;-4.518;2023-05-10T06:42:09;21.92;55.31
74087;SHT30;62445;48.406;-4.518;2023-05-10T06:44:34;21.92;55.32
74087;SHT30;62445;48.406;-4.518;2023-05-10T06:46:59;21.92;55.37
74087;SHT30;62445;48.406;-4.518;2023-05-10T06:49:25;21.89;55.34
74087;SHT30;62445;48.406;-4.518;2023-05-10T06:51:50;21.89;55.34
74087;SHT30;62445;48.406;-4.518;2023-05-10T06:54:16;21.90;55.37
74087;SHT30;62445;48.406;-4.518;2023-05-10T06:56:42;21.90;55.39
74087;SHT30;62445;48.406;-4.518;2023-05-10T06:59:08;21.93;55.31
74087;SHT30;62445;48.406;-4.518;2023-05-10T07:01:33;21.89;55.40
74087;SHT30;62445;48.406;-4.518;2023-05-10T07:03:59;21.89;55.37
74087;SHT30;62445;48.406;-4.518;2023-05-10T07:06:24;21.88;55.39
74087;SHT30;62445;48.406;-4.518;2023-05-10T07:08:50;21.90;55.35
74087;SHT30;62445;48.406;-4.518;2023-05-10T07:11:15;21.90;55.39
74087;SHT30;62445;48.406;-4.518;2023-05-10T07:13:41;21.89;55.38
74087;SHT30;62445;48.406;-4.518;2023-05-10T07:16:09;21.89;55.39
74087;SHT30;62445;48.406;-4.518;2023-05-10T07:18:35;21.89;55.40
74087;SHT30;62445;48.406;-4.518;2023-05-10T07:21:01;21.86;55.43
74087;SHT30;62445;48.406;-4.518;2023-05-10T07:23:27;21.89;55.41
74087;SHT30;62445;48.406;-4.518;2023-05-10T07:25:53;21.88;55.36
74087;SHT30;62445;48.406;-4.518;2023-05-10T07:28:19;21.89;55.40
74087;SHT30;62445;48.406;-4.518;2023-05-10T07:30:44;21.89;55.34
74087;SHT30;62445;48.406;-4.518;2023-05-10T07:33:12;21.88;55.29
74087;SHT30;62445;48.406;-4.518;2023-05-10T07:35:37;21.89;55.32
74087;SHT30;62445;48.406;-4.518;2023-05-10T07:38:02;21.88;55.24
74087;SHT30;62445;48.406;-4.518;2023-05-10T07:40:28;21.89;55.31
74087;SHT30;62445;48.406;-4.518;2023-05-10T07:42:54;21.89;55.38
74087;SHT30;62445;48.406;-4.518;2023-05-10T07:45:20;21.86;55.36
74087;SHT30;62445;48.406;-4.518;2023-05-10T07:47:45;21.88;55.37
74087;SHT30;62445;48.406;-4.518;2023-05-10T07:50:10;21.88;55.35
74087;SHT30;62445;48.406;-4.518;2023-05-10T07:52:36;21.86;55.27
74087;SHT30;62445;48.406;-4.518;2023-05-10T07:55:01;21.85;55.36
74087;SHT30;62445;48.406;-4.518;2023-05-10T07:57:27;21.88;55.38
74087;SHT30;62445;48.406;-4.518;2023-05-10T07:59:52;21.85;55.27
74087;SHT30;62445;48.406;-4.518;2023-05-10T08:02:18;21.83;55.33
74087;SHT30;62445;48.406;-4.518;2023-05-10T08:04:43;21.86;55.37
74087;SHT30;62445;48.406;-4.518;2023-05-10T08:07:08;21.86;55.40
74087;SHT30;62445;48.406;-4.518;2023-05-10T08:09:34;21.88;55.40
74087;SHT30;62445;48.406;-4.518;2023-05-10T08:11:59;21.86;55.40
74087;SHT30;62445;48.406;-4.518;2023-05-10T08:14:27;21.88;55.35
74087;SHT30;62445;48.406;-4.518;2023-05-10T08:16:53;21.85;55.46
74087;SHT30;62445;48.406;-4.518;2023-05-10T08:19:18;21.88;55.35
74087;SHT30;62445;48.406;-4.518;2023-05-10T08:21:46;21.93;55.13
74087;SHT30;62445;48.406;-4.518;2023-05-10T08:24:11;21.95;55.17
74087;SHT30;62445;48.406;-4.518;2023-05-10T08:26:37;21.98;55.12
74087;SHT30;62445;48.406;-4.518;2023-05-10T08:29:02;22.03;55.02
74087;SHT30;62445;48.406;-4.518;2023-05-10T08:31:28;22.03;55.02
74087;SHT30;62445;48.406;-4.518;2023-05-10T08:33:53;22.08;55.08
74087;SHT30;62445;48.406;-4.518;2023-05-10T08:36:19;22.09;55.06
74087;SHT30;62445;48.406;-4.518;2023-05-10T08:38:50;22.13;55.11
74087;SHT30;62445;48.406;-4.518;2023-05-10T08:41:16;22.14;55.00
74087;SHT30;62445;48.406;-4.518;2023-05-10T08:43:43;22.16;54.90
74087;SHT30;62445;48.406;-4.518;2023-05-10T08:46:15;22.17;54.97
74087;SHT30;62445;48.406;-4.518;2023-05-10T08:48:43;22.19;54.91
74087;SHT30;62445;48.406;-4.518;2023-05-10T08:51:18;22.21;54.87
74087;SHT30;62445;48.406;-4.518;2023-05-10T08:53:44;22.21;54.66
74087;SHT30;62445;48.406;-4.518;2023-05-10T08:56:10;22.26;54.62
74087;SHT30;62445;48.406;-4.518;2023-05-10T08:58:37;22.26;54.47
74087;SHT30;62445;48.406;-4.518;2023-05-10T09:01:03;22.26;54.46
74087;SHT30;62445;48.406;-4.518;2023-05-10T09:03:30;22.27;54.37
74087;SHT30;62445;48.406;-4.518;2023-05-10T09:05:56;22.29;54.34
74087;SHT30;62445;48.406;-4.518;2023-05-10T09:08:23;22.30;54.20
74087;SHT30;62445;48.406;-4.518;2023-05-10T09:10:52;22.30;54.22
74087;SHT30;62445;48.406;-4.518;2023-05-10T09:13:19;22.35;54.10
74087;SHT30;62445;48.406;-4.518;2023-05-10T09:15:45;22.33;54.11
74087;SHT30;62445;48.406;-4.518;2023-05-10T09:18:11;22.33;54.33
74087;SHT30;62445;48.406;-4.518;2023-05-10T09:20:37;22.35;53.90
74087;SHT30;62445;48.406;-4.518;2023-05-10T09:23:03;22.39;53.73
74087;SHT30;62445;48.406;-4.518;2023-05-10T09:25:28;22.41;53.65
74087;SHT30;62445;48.406;-4.518;2023-05-10T09:27:54;22.40;53.69
74087;SHT30;62445;48.406;-4.518;2023-05-10T09:30:25;22.39;53.78
74087;SHT30;62445;48.406;-4.518;2023-05-10T09:32:52;22.35;52.93
74087;SHT30;62445;48.406;-4.518;2023-05-10T09:35:19;22.33;53.57
74087;SHT30;62445;48.406;-4.518;2023-05-10T09:37:50;22.35;53.57
74087;SHT30;62445;48.406;-4.518;2023-05-10T09:40:17;22.37;53.47
74087;SHT30;62445;48.406;-4.518;2023-05-10T09:42:51;22.39;53.57
74087;SHT30;62445;48.406;-4.518;2023-05-10T09:45:17;22.37;53.43
74087;SHT30;62445;48.406;-4.518;2023-05-10T09:47:43;22.39;53.35
74087;SHT30;62445;48.406;-4.518;2023-05-10T09:50:09;22.39;53.26
74087;SHT30;62445;48.406;-4.518;2023-05-10T09:55:18;22.41;53.13
74087;SHT30;62445;48.406;-4.518;2023-05-10T09:57:44;22.40;53.03
74087;SHT30;62445;48.406;-4.518;2023-05-10T10:00:09;22.39;53.10
74087;SHT30;62445;48.406;-4.518;2023-05-10T10:02:35;22.41;53.05
74087;SHT30;62445;48.406;-4.518;2023-05-10T10:05:02;22.40;52.86
74087;SHT30;62445;48.406;-4.518;2023-05-10T10:07:28;22.40;52.87
74087;SHT30;62445;48.406;-4.518;2023-05-10T10:09:54;22.41;52.60
74087;SHT30;62445;48.406;-4.518;2023-05-10T10:12:20;22.40;52.48
74087;SHT30;62445;48.406;-4.518;2023-05-10T10:14:47;22.46;52.23
74087;SHT30;62445;48.406;-4.518;2023-05-10T10:17:13;22.46;52.38
74087;SHT30;62445;48.406;-4.518;2023-05-10T10:19:39;22.50;52.17
74087;SHT30;62445;48.406;-4.518;2023-05-10T10:22:04;22.51;52.21
74087;SHT30;62445;48.406;-4.518;2023-05-10T10:24:30;22.53;52.24
74087;SHT30;62445;48.406;-4.518;2023-05-10T10:27:02;22.56;52.29
74087;SHT30;62445;48.406;-4.518;2023-05-10T10:32:30;22.58;52.21
74087;SHT30;62445;48.406;-4.518;2023-05-10T10:34:58;22.57;51.98
74087;SHT30;62445;48.406;-4.518;2023-05-10T10:37:42;22.61;52.19
74087;SHT30;62445;48.406;-4.518;2023-05-10T10:42:52;22.60;51.87
74087;SHT30;62445;48.406;-4.518;2023-05-10T10:45:19;22.57;51.94
74087;SHT30;62445;48.406;-4.518;2023-05-10T10:47:45;22.57;51.82
74087;SHT30;62445;48.406;-4.518;2023-05-10T10:50:10;22.58;52.02
74087;SHT30;62445;48.406;-4.518;2023-05-10T10:52:42;22.58;52.20
74087;SHT30;62445;48.406;-4.518;2023-05-10T11:02:46;22.57;52.57
74087;SHT30;62445;48.406;-4.518;2023-05-10T11:05:43;22.56;52.62
74087;SHT30;62445;48.406;-4.518;2023-05-10T11:08:16;22.56;52.88
74087;SHT30;62445;48.406;-4.518;2023-05-10T11:13:34;22.57;52.98
74087;SHT30;62445;48.406;-4.518;2023-05-10T11:19:01;22.68;53.00
74087;SHT30;62445;48.406;-4.518;2023-05-10T11:21:28;22.67;53.03
74087;SHT30;62445;48.406;-4.518;2023-05-10T11:23:55;22.69;52.74
74087;SHT30;62445;48.406;-4.518;2023-05-10T11:26:25;22.74;52.69
74087;SHT30;62445;48.406;-4.518;2023-05-10T11:28:53;22.78;52.66
74087;SHT30;62445;48.406;-4.518;2023-05-10T11:31:20;22.81;52.49
74087;SHT30;62445;48.406;-4.518;2023-05-10T11:33:49;22.84;52.55
74087;SHT30;62445;48.406;-4.518;2023-05-10T11:36:17;22.85;52.44
74087;SHT30;62445;48.406;-4.518;2023-05-10T11:38:42;22.85;52.47
74087;SHT30;62445;48.406;-4.518;2023-05-10T11:41:09;22.87;52.51
74087;SHT30;62445;48.406;-4.518;2023-05-10T11:43:35;22.88;52.44
74087;SHT30;62445;48.406;-4.518;2023-05-10T11:46:04;22.88;52.34
74087;SHT30;62445;48.406;-4.518;2023-05-10T11:48:30;22.94;52.10
74087;SHT30;62445;48.406;-4.518;2023-05-10T11:50:56;22.95;52.49
74087;SHT30;62445;48.406;-4.518;2023-05-10T11:53:23;22.99;52.39
74087;SHT30;62445;48.406;-4.518;2023-05-10T11:55:48;23.01;52.42
74087;SHT30;62445;48.406;-4.518;2023-05-10T11:58:15;23.01;52.63
74087;SHT30;62445;48.406;-4.518;2023-05-10T12:00:40;22.98;52.85
74087;SHT30;62445;48.406;-4.518;2023-05-10T12:03:06;23.02;52.80
74087;SHT30;62445;48.406;-4.518;2023-05-10T12:05:32;23.02;52.90
74087;SHT30;62445;48.406;-4.518;2023-05-10T12:08:15;23.02;52.91
74087;SHT30;62445;48.406;-4.518;2023-05-10T12:10:41;23.05;52.90
74087;SHT30;62445;48.406;-4.518;2023-05-10T12:13:11;23.11;52.85
74087;SHT30;62445;48.406;-4.518;2023-05-10T12:15:37;23.11;52.92
74087;SHT30;62445;48.406;-4.518;2023-05-10T12:18:03;23.06;53.01
74087;SHT30;62445;48.406;-4.518;2023-05-10T12:20:29;23.04;53.13
74087;SHT30;62445;48.406;-4.518;2023-05-10T12:22:57;23.02;53.10
74087;SHT30;62445;48.406;-4.518;2023-05-10T12:25:24;23.04;53.16
74087;SHT30;62445;48.406;-4.518;2023-05-10T12:27:57;23.02;53.20
74087;SHT30;62445;48.406;-4.518;2023-05-10T12:30:24;23.02;53.25
74087;SHT30;62445;48.406;-4.518;2023-05-10T12:32:50;22.98;53.30
74087;SHT30;62445;48.406;-4.518;2023-05-10T12:35:15;22.99;53.24
74087;SHT30;62445;48.406;-4.518;2023-05-10T12:37:43;23.06;53.11
74087;SHT30;62445;48.406;-4.518;2023-05-10T12:40:10;23.09;53.09
74087;SHT30;62445;48.406;-4.518;2023-05-10T12:42:37;23.11;53.00
74087;SHT30;62445;48.406;-4.518;2023-05-10T12:45:04;23.11;53.01
74087;SHT30;62445;48.406;-4.518;2023-05-10T12:47:31;23.08;53.05
74087;SHT30;62445;48.406;-4.518;2023-05-10T12:49:56;23.08;53.05
74087;SHT30;62445;48.406;-4.518;2023-05-10T12:52:22;23.13;53.06
74087;SHT30;62445;48.406;-4.518;2023-05-10T12:54:48;23.11;53.11
74087;SHT30;62445;48.406;-4.518;2023-05-10T12:57:14;23.09;53.14
74087;SHT30;62445;48.406;-4.518;2023-05-10T12:59:39;23.06;53.12
74087;SHT30;62445;48.406;-4.518;2023-05-10T13:02:06;23.08;53.19
74087;SHT30;62445;48.406;-4.518;2023-05-10T13:04:31;23.06;53.23
74087;SHT30;62445;48.406;-4.518;2023-05-10T13:06:57;23.06;53.04
74087;SHT30;62445;48.406;-4.518;2023-05-10T13:09:24;23.06;53.09
74087;SHT30;62445;48.406;-4.518;2023-05-10T13:11:50;23.09;53.15
74087;SHT30;62445;48.406;-4.518;2023-05-10T13:14:16;23.11;53.00
74087;SHT30;62445;48.406;-4.518;2023-05-10T13:16:41;23.12;53.01
74087;SHT30;62445;48.406;-4.518;2023-05-10T13:19:07;23.19;52.88
74087;SHT30;62445;48.406;-4.518;2023-05-10T13:21:32;23.22;52.79
74087;SHT30;62445;48.406;-4.518;2023-05-10T13:23:57;23.27;52.73
74087;SHT30;62445;48.406;-4.518;2023-05-10T13:26:23;23.24;52.80
74087;SHT30;62445;48.406;-4.518;2023-05-10T13:28:49;23.22;52.82
74087;SHT30;62445;48.406;-4.518;2023-05-10T13:31:16;23.18;52.87
74087;SHT30;62445;48.406;-4.518;2023-05-10T13:33:41;23.23;52.71
74087;SHT30;62445;48.406;-4.518;2023-05-10T13:36:07;23.26;52.63
74087;SHT30;62445;48.406;-4.518;2023-05-10T13:38:32;23.32;52.64
74087;SHT30;62445;48.406;-4.518;2023-05-10T13:40:58;23.33;52.72
74087;SHT30;62445;48.406;-4.518;2023-05-10T13:43:23;23.36;52.49
74087;SHT30;62445;48.406;-4.518;2023-05-10T13:45:49;23.34;52.45
74087;SHT30;62445;48.406;-4.518;2023-05-10T13:48:14;23.38;52.42
74087;SHT30;62445;48.406;-4.518;2023-05-10T13:50:40;23.39;52.46
74087;SHT30;62445;48.406;-4.518;2023-05-10T13:53:05;23.38;52.45
74087;SHT30;62445;48.406;-4.518;2023-05-10T13:55:30;23.40;52.46
74087;SHT30;62445;48.406;-4.518;2023-05-10T13:57:56;23.34;52.55
74087;SHT30;62445;48.406;-4.518;2023-05-10T14:00:21;23.32;52.62
74087;SHT30;62445;48.406;-4.518;2023-05-10T14:02:47;23.33;52.65
74087;SHT30;62445;48.406;-4.518;2023-05-10T14:05:12;23.36;52.56
74087;SHT30;62445;48.406;-4.518;2023-05-10T14:07:38;23.39;52.53
74087;SHT30;62445;48.406;-4.518;2023-05-10T14:10:03;23.39;52.46
74087;SHT30;62445;48.406;-4.518;2023-05-10T14:12:29;23.43;52.47
74087;SHT30;62445;48.406;-4.518;2023-05-10T14:14:54;23.42;52.45
74087;SHT30;62445;48.406;-4.518;2023-05-10T14:17:20;23.43;52.28
74087;SHT30;62445;48.406;-4.518;2023-05-10T14:19:45;23.45;52.45
74087;SHT30;62445;48.406;-4.518;2023-05-10T14:22:10;23.46;52.31
74087;SHT30;62445;48.406;-4.518;2023-05-10T14:24:37;23.43;52.26
74087;SHT30;62445;48.406;-4.518;2023-05-10T14:27:03;23.38;52.11
74087;SHT30;62445;48.406;-4.518;2023-05-10T14:29:28;23.33;52.31
74087;SHT30;62445;48.406;-4.518;2023-05-10T14:31:53;23.30;52.29
74087;SHT30;62445;48.406;-4.518;2023-05-10T14:34:19;23.30;52.35
74087;SHT30;62445;48.406;-4.518;2023-05-10T14:36:45;23.29;52.43
74087;SHT30;62445;48.406;-4.518;2023-05-10T14:39:10;23.30;52.45
74087;SHT30;62445;48.406;-4.518;2023-05-10T14:41:38;23.26;52.33
74087;SHT30;62445;48.406;-4.518;2023-05-10T14:44:06;23.26;52.39
74087;SHT30;62445;48.406;-4.518;2023-05-10T14:46:31;23.23;52.33
74087;SHT30;62445;48.406;-4.518;2023-05-10T14:48:56;23.24;52.39
74087;SHT30;62445;48.406;-4.518;2023-05-10T14:51:22;23.15;52.48
74087;SHT30;62445;48.406;-4.518;2023-05-10T14:53:48;23.09;52.70
74087;SHT30;62445;48.406;-4.518;2023-05-10T14:56:14;23.02;52.86
74087;SHT30;62445;48.406;-4.518;2023-05-10T14:58:39;23.01;52.95
74087;SHT30;62445;48.406;-4.518;2023-05-10T15:01:05;22.99;52.94
74087;SHT30;62445;48.406;-4.518;2023-05-10T15:03:30;22.99;52.96
74087;SHT30;62445;48.406;-4.518;2023-05-10T15:05:56;22.95;53.01
74087;SHT30;62445;48.406;-4.518;2023-05-10T15:08:23;22.96;53.04
74087;SHT30;62445;48.406;-4.518;2023-05-10T15:10:50;23.04;53.14
74087;SHT30;62445;48.406;-4.518;2023-05-10T15:13:15;23.05;52.93
74087;SHT30;62445;48.406;-4.518;2023-05-10T15:15:41;23.12;52.68
74087;SHT30;62445;48.406;-4.518;2023-05-10T15:18:06;23.24;52.46
74087;SHT30;62445;48.406;-4.518;2023-05-10T15:20:32;23.40;52.09
74087;SHT30;62445;48.406;-4.518;2023-05-10T15:22:57;23.60;51.68
74087;SHT30;62445;48.406;-4.518;2023-05-10T15:25:23;23.73;51.26
74087;SHT30;62445;48.406;-4.518;2023-05-10T15:27:49;23.81;51.02
74087;SHT30;62445;48.406;-4.518;2023-05-10T15:30:14;23.85;50.96
74087;SHT30;62445;48.406;-4.518;2023-05-10T15:32:39;24.00;50.65
74087;SHT30;62445;48.406;-4.518;2023-05-10T15:35:07;24.18;50.32
74087;SHT30;62445;48.406;-4.518;2023-05-10T15:37:33;24.35;50.00
74087;SHT30;62445;48.406;-4.518;2023-05-10T15:39:58;24.52;49.58
74087;SHT30;62445;48.406;-4.518;2023-05-10T15:42:31;24.66;49.08
74087;SHT30;62445;48.406;-4.518;2023-05-10T15:44:57;24.62;48.99
74087;SHT30;62445;48.406;-4.518;2023-05-10T15:47:23;24.51;49.24